Time;durP1;ratioP1;P1;durP2;ratioP2;P2;SDS_P1;SDS_P2;PMS_P1;PMS_P2;Temp;Humidity;BMP_temperature;BMP_pressure;BME280_temperature;BME280_humidity;BME280_pressure;Samples;Min_cycle;Max_cycle;Signal;HPM_P1;HPM_P2
2023/10/16 00:01:10;;;;;;;5.60;2.38;;;;;;;11.44;57.74;102367.59;5113106;28;20046;-60
2023/10/16 00:03:41;;;;;;;7.05;3.03;;;;;;;11.41;57.68;102358.03;5122677;28;20082;-60
2023/10/16 00:06:12;;;;;;;5.75;2.75;;;;;;;11.43;57.60;102360.53;5122025;28;20043;-59
2023/10/16 00:08:47;;;;;;;6.38;3.15;;;;;;;11.41;57.82;102359.91;5120989;28;20055;-60
2023/10/16 00:11:18;;;;;;;6.05;2.60;;;;;;;11.39;57.80;102364.63;5123285;28;20039;-60
2023/10/16 00:13:49;;;;;;;7.28;2.83;;;;;;;11.38;57.64;102360.28;5114965;28;20040;-60
2023/10/16 00:16:18;;;;;;;8.10;3.13;;;;;;;11.37;57.94;102364.81;5111287;28;20107;-60
2023/10/16 00:18:47;;;;;;;8.10;2.90;;;;;;;11.35;57.83;102355.28;5114963;28;20063;-60
2023/10/16 00:21:15;;;;;;;5.75;2.90;;;;;;;11.35;57.98;102357.97;5119291;28;20074;-60
2023/10/16 00:23:43;;;;;;;4.68;2.58;;;;;;;11.34;57.96;102359.00;5120898;28;20082;-60
2023/10/16 00:26:14;;;;;;;7.25;3.10;;;;;;;11.33;57.69;102354.63;5119171;28;20069;-60
2023/10/16 00:28:45;;;;;;;4.75;2.10;;;;;;;11.18;58.15;102332.31;5120160;28;20044;-60
2023/10/16 00:31:20;;;;;;;5.80;2.50;;;;;;;11.31;57.89;102352.13;5117375;28;20040;-60
2023/10/16 00:33:49;;;;;;;4.85;2.60;;;;;;;11.31;57.96;102352.13;5117548;28;20048;-60
2023/10/16 00:36:17;;;;;;;6.53;2.97;;;;;;;11.29;58.05;102348.78;5112230;28;20112;-60
2023/10/16 00:38:49;;;;;;;10.18;3.15;;;;;;;11.28;58.04;102349.81;5114200;28;20047;-60
2023/10/16 00:41:23;;;;;;;6.80;2.75;;;;;;;11.27;58.12;102348.16;5113740;28;20085;-60
2023/10/16 00:43:52;;;;;;;5.35;2.63;;;;;;;11.25;58.20;102350.19;5116590;28;20082;-60
2023/10/16 00:46:32;;;;;;;6.65;2.80;;;;;;;11.25;58.40;102362.81;5122416;28;20557;-60
2023/10/16 00:49:00;;;;;;;5.82;2.47;;;;;;;11.25;58.21;102354.75;5120239;28;20071;-60
2023/10/16 00:51:28;;;;;;;5.10;3.25;;;;;;;11.25;58.48;102352.88;5120273;28;20047;-61
2023/10/16 00:54:15;;;;;;;7.95;3.42;;;;;;;11.24;58.16;102356.59;5120952;28;20109;-60
2023/10/16 00:56:44;;;;;;;7.03;3.05;;;;;;;11.24;58.47;102358.47;5117989;28;20039;-60
2023/10/16 00:59:16;;;;;;;6.07;2.70;;;;;;;11.24;58.30;102353.91;5123362;28;20043;-60
2023/10/16 01:01:44;;;;;;;4.82;3.17;;;;;;;11.24;58.69;102355.75;5118605;28;20047;-59
2023/10/16 01:04:13;;;;;;;7.03;2.83;;;;;;;11.23;58.45;102341.47;5123282;28;20126;-60
2023/10/16 01:06:44;;;;;;;4.30;2.55;;;;;;;11.22;58.50;102341.66;5121839;28;20048;-60
2023/10/16 01:09:22;;;;;;;5.90;2.28;;;;;;;11.07;58.31;102333.63;5114217;28;20063;-60
2023/10/16 01:11:51;;;;;;;10.30;2.80;;;;;;;11.20;58.41;102347.25;5118990;28;20044;-59
2023/10/16 01:14:20;;;;;;;5.22;2.55;;;;;;;11.08;58.67;102327.22;5116684;28;20043;-59
2023/10/16 01:16:50;;;;;;;6.57;2.15;;;;;;;11.19;58.66;102344.75;5118069;28;20043;-60
2023/10/16 01:19:20;;;;;;;4.55;2.60;;;;;;;11.21;58.57;102340.00;5117981;28;20093;-60
2023/10/16 01:21:48;;;;;;;5.82;3.10;;;;;;;11.21;58.32;102331.94;5115348;28;20354;-60
2023/10/16 01:24:19;;;;;;;4.90;2.70;;;;;;;11.19;58.40;102325.91;5121829;28;20123;-60
2023/10/16 01:26:49;;;;;;;7.43;2.80;;;;;;;11.12;58.37;102309.69;5120109;28;20052;-61
2023/10/16 01:29:17;;;;;;;8.32;2.95;;;;;;;11.22;58.72;102325.53;5118549;28;20074;-61
2023/10/16 01:31:47;;;;;;;4.97;2.38;;;;;;;11.22;58.56;102331.72;5117311;28;20051;-61
2023/10/16 01:34:15;;;;;;;5.32;2.70;;;;;;;11.20;58.54;102328.41;5119762;28;20047;-60
2023/10/16 01:36:45;;;;;;;6.90;3.22;;;;;;;11.22;58.50;102330.91;5112651;28;20044;-61
2023/10/16 01:42:01;;;;;;;6.13;2.95;;;;;;;11.19;58.48;102321.34;5116723;28;20061;-60
2023/10/16 01:44:29;;;;;;;8.60;2.90;;;;;;;11.20;58.48;102327.56;5114199;28;20066;-61
2023/10/16 01:46:57;;;;;;;7.95;3.00;;;;;;;11.20;58.48;102319.50;5120254;28;20100;-61
2023/10/16 01:49:25;;;;;;;6.20;3.17;;;;;;;11.20;58.56;102320.31;5116056;28;20064;-60
2023/10/16 01:51:55;;;;;;;7.38;3.15;;;;;;;11.20;58.46;102325.72;5120870;28;20048;-61
2023/10/16 01:54:24;;;;;;;5.97;3.03;;;;;;;11.19;58.38;102324.03;5120775;28;20119;-61
2023/10/16 01:56:53;;;;;;;7.85;3.25;;;;;;;11.20;58.59;102328.41;5122117;28;20086;-60
2023/10/16 01:59:22;;;;;;;7.88;3.13;;;;;;;11.20;58.39;102324.88;5120871;28;20059;-60
2023/10/16 02:01:51;;;;;;;7.57;3.40;;;;;;;11.19;58.58;102315.13;5122195;28;20073;-61
2023/10/16 02:04:19;;;;;;;8.85;3.20;;;;;;;11.17;58.68;102315.31;5125460;28;20438;-60
2023/10/16 02:06:48;;;;;;;4.78;2.78;;;;;;;11.16;58.71;102313.66;5124379;28;20043;-61
2023/10/16 02:09:23;;;;;;;5.57;2.75;;;;;;;11.15;58.70;102317.38;5125034;28;20133;-61
2023/10/16 02:11:51;;;;;;;5.43;3.45;;;;;;;11.15;58.76;102312.00;5121411;28;20077;-60
2023/10/16 02:14:20;;;;;;;8.18;3.53;;;;;;;11.14;58.78;102309.50;5120261;28;20055;-59
2023/10/16 02:16:51;;;;;;;7.35;3.10;;;;;;;11.13;58.83;102305.97;5118107;28;20112;-60
2023/10/16 02:19:19;;;;;;;7.03;4.10;;;;;;;11.14;58.88;102307.63;5118678;28;20066;-60
2023/10/16 02:21:49;;;;;;;5.70;3.08;;;;;;;11.12;58.71;102298.91;5118168;28;20035;-60
2023/10/16 02:24:17;;;;;;;5.82;2.92;;;;;;;11.10;58.84;102295.59;5120702;28;20070;-60
2023/10/16 02:29:31;;;;;;;6.80;3.50;;;;;;;11.10;58.70;102300.97;5119379;28;20051;-60
2023/10/16 02:32:03;;;;;;;5.88;3.00;;;;;;;11.06;58.81;102297.81;5109113;28;20078;-60
2023/10/16 02:34:33;;;;;;;8.93;3.58;;;;;;;11.08;58.61;102305.69;5115749;28;20044;-61
2023/10/16 02:37:01;;;;;;;7.18;3.60;;;;;;;11.06;58.83;102303.19;5118063;28;20086;-60
2023/10/16 02:39:37;;;;;;;7.47;3.28;;;;;;;11.06;58.68;102305.06;5107666;28;20077;-60
2023/10/16 02:42:08;;;;;;;7.45;3.97;;;;;;;11.04;58.70;102301.72;5124373;28;20112;-60
2023/10/16 02:44:42;;;;;;;7.88;4.03;;;;;;;11.02;58.73;102301.91;5113865;28;20048;-59
2023/10/16 02:47:13;;;;;;;8.30;3.40;;;;;;;10.99;58.64;102302.28;5122253;28;20074;-60
2023/10/16 02:49:47;;;;;;;5.93;3.20;;;;;;;11.02;58.72;102303.75;5120341;28;20051;-60
2023/10/16 02:52:17;;;;;;;7.03;3.10;;;;;;;11.00;58.65;102301.25;5121252;28;20048;-60
2023/10/16 02:54:49;;;;;;;7.57;3.38;;;;;;;10.98;58.60;102295.25;5118686;28;20054;-60
2023/10/16 02:57:17;;;;;;;5.93;3.10;;;;;;;10.98;58.68;102297.94;5119470;28;20047;-64
2023/10/16 02:59:45;;;;;;;7.78;3.97;;;;;;;10.96;58.75;102296.44;5115446;28;20104;-64
2023/10/16 03:02:17;;;;;;;6.38;3.75;;;;;;;10.96;58.71;102305.34;5116913;28;20044;-64
2023/10/16 03:04:51;;;;;;;7.50;3.67;;;;;;;10.95;58.90;102294.78;5110446;28;20043;-64
2023/10/16 03:07:20;;;;;;;7.07;3.53;;;;;;;10.89;58.47;102301.75;5112692;28;20150;-64
2023/10/16 03:09:49;;;;;;;8.52;3.63;;;;;;;10.91;58.79;102302.41;5115430;28;20386;-64
2023/10/16 03:12:19;;;;;;;5.50;3.28;;;;;;;10.90;58.53;102303.41;5116028;28;20040;-64
2023/10/16 03:14:49;;;;;;;6.80;3.45;;;;;;;10.88;58.44;102294.69;5124108;28;20047;-64
2023/10/16 03:17:25;;;;;;;6.78;3.55;;;;;;;10.88;58.68;102283.94;5123183;28;20051;-64
2023/10/16 03:19:55;;;;;;;5.20;3.15;;;;;;;10.89;58.44;102284.78;5121194;28;20312;-64
2023/10/16 03:22:23;;;;;;;6.13;3.22;;;;;;;10.87;58.64;102286.81;5124116;28;20040;-64
2023/10/16 03:24:55;;;;;;;9.00;3.20;;;;;;;10.85;58.43;102284.31;5112435;28;20100;-64
2023/10/16 03:27:28;;;;;;;8.32;3.80;;;;;;;10.86;58.54;102290.53;5110400;28;20517;-64
2023/10/16 03:29:58;;;;;;;5.88;3.33;;;;;;;10.69;58.65;102266.53;5114418;28;20558;-64
2023/10/16 03:32:28;;;;;;;6.18;2.92;;;;;;;10.85;58.50;102284.31;5123240;28;20104;-64
2023/10/16 03:34:58;;;;;;;6.45;3.17;;;;;;;10.84;58.41;102300.66;5124076;28;20420;-64
2023/10/16 03:37:26;;;;;;;6.65;3.40;;;;;;;10.83;58.51;102280.97;5119036;28;20039;-64
2023/10/16 03:40:03;;;;;;;5.55;3.78;;;;;;;10.82;58.47;102276.63;5121249;28;20043;-64
2023/10/16 03:42:31;;;;;;;6.68;3.13;;;;;;;10.80;58.54;102284.06;5123181;28;20044;-64
2023/10/16 03:45:02;;;;;;;6.00;3.08;;;;;;;10.81;58.43;102285.72;5121595;28;20048;-64
2023/10/16 03:47:33;;;;;;;5.95;3.22;;;;;;;10.80;58.20;102289.44;5122516;28;20062;-64
2023/10/16 03:50:03;;;;;;;6.53;3.63;;;;;;;10.80;58.36;102296.66;5123605;28;20043;-64
2023/10/16 03:52:31;;;;;;;6.72;3.17;;;;;;;10.77;58.53;102289.81;5121906;28;20040;-63
2023/10/16 03:55:10;;;;;;;6.70;3.55;;;;;;;10.57;58.53;102265.34;5123007;28;20055;-65
2023/10/16 03:57:39;;;;;;;6.60;3.67;;;;;;;10.74;58.32;102296.38;5120702;28;20050;-65
2023/10/16 04:00:14;;;;;;;7.55;3.35;;;;;;;10.72;58.34;102284.16;5124743;28;20055;-65
2023/10/16 04:02:44;;;;;;;7.55;4.50;;;;;;;10.75;58.40;102286.47;5124825;28;20039;-65
2023/10/16 04:05:29;;;;;;;8.80;4.13;;;;;;;10.75;58.28;102286.47;5123494;28;20043;-64
2023/10/16 04:07:57;;;;;;;6.18;3.40;;;;;;;10.74;58.38;102291.00;5123446;28;20044;-64
2023/10/16 04:10:29;;;;;;;8.18;3.40;;;;;;;10.75;58.12;102281.94;5119388;28;20110;-64
2023/10/16 04:12:58;;;;;;;6.22;3.00;;;;;;;10.77;58.10;102284.44;5122066;28;20065;-65
2023/10/16 04:15:50;;;;;;;4.78;2.88;;;;;;;10.76;57.97;102282.75;5118852;28;20043;-65
2023/10/16 04:18:28;;;;;;;5.40;3.05;;;;;;;10.76;58.14;102280.06;5117538;28;20063;-65
2023/10/16 04:21:37;;;;;;;9.43;3.45;;;;;;;10.75;58.04;102273.84;5116644;28;20213;-65
2023/10/16 04:23:54;;;;;;;6.50;3.60;;;;;;;10.75;58.06;102268.47;5122964;28;20550;-65
2023/10/16 04:26:30;;;;;;;4.82;3.28;;;;;;;10.73;57.82;102269.69;5119499;28;20048;-65
2023/10/16 04:31:45;;;;;;;5.70;3.70;;;;;;;10.70;58.01;102268.22;5114548;28;20094;-65
2023/10/16 04:34:24;;;;;;;7.47;3.72;;;;;;;10.58;58.03;102250.06;5122275;28;20066;-65
2023/10/16 04:36:54;;;;;;;8.18;3.25;;;;;;;10.70;57.88;102270.91;5113256;28;20048;-65
2023/10/16 04:48:06;;;;;;;4.88;3.10;;;;;;;10.62;57.83;102244.13;5113306;28;20052;-66
2023/10/16 04:50:41;;;;;;;5.50;3.05;;;;;;;10.66;57.78;102250.78;5120040;28;20123;-66
2023/10/16 04:53:28;;;;;;;5.57;2.90;;;;;;;10.62;57.86;102244.13;5122139;28;20040;-65
2023/10/16 04:56:04;;;;;;;7.95;3.30;;;;;;;10.64;57.82;102246.63;5119982;28;20055;-66
2023/10/16 04:58:47;;;;;;;6.90;3.45;;;;;;;10.66;57.92;102253.47;4760257;28;9999633;-65
2023/10/16 05:01:33;;;;;;;5.80;3.50;;;;;;;10.62;57.95;102245.97;5119225;28;20048;-64
2023/10/16 05:07:06;;;;;;;5.97;3.20;;;;;;;10.58;57.88;102245.50;5114136;28;20534;-66
2023/10/16 05:18:12;;;;;;;6.65;3.50;;;;;;;10.50;57.93;102244.78;5035813;28;20123;-67
2023/10/16 06:16:29;;;;;;;5.22;3.42;;;;;;;10.36;58.32;102246.50;5121125;28;20151;-64
2023/10/16 06:18:59;;;;;;;8.00;3.75;;;;;;;10.35;58.54;102242.13;5120580;28;20059;-65
2023/10/16 06:21:27;;;;;;;6.55;3.63;;;;;;;10.36;58.62;102244.63;5119006;28;20047;-65
2023/10/16 06:23:55;;;;;;;6.85;4.15;;;;;;;10.36;58.77;102244.63;5113203;28;20059;-65
2023/10/16 06:26:27;;;;;;;10.68;4.05;;;;;;;10.36;58.62;102247.31;5119535;28;20116;-66
2023/10/16 06:28:56;;;;;;;8.88;3.92;;;;;;;10.35;58.70;102242.97;5113989;28;20052;-67
2023/10/16 06:31:24;;;;;;;5.90;3.60;;;;;;;10.34;58.83;102237.78;5121358;28;20070;-64
2023/10/16 06:33:57;;;;;;;5.60;3.72;;;;;;;10.34;58.53;102244.00;5120013;28;20146;-66
2023/10/16 06:36:28;;;;;;;8.20;3.75;;;;;;;10.34;58.85;102243.16;5118040;28;20146;-65
2023/10/16 06:39:05;;;;;;;5.60;3.75;;;;;;;10.17;58.88;102207.56;5121373;28;20056;-66
2023/10/16 06:41:34;;;;;;;5.60;3.97;;;;;;;10.34;58.78;102232.41;5115708;28;20054;-65
2023/10/16 06:44:03;;;;;;;6.28;3.75;;;;;;;10.35;58.64;102239.44;5115283;28;20052;-65
2023/10/16 06:46:37;;;;;;;7.28;4.30;;;;;;;10.33;58.87;102234.25;5115823;28;20052;-69
2023/10/16 06:49:09;;;;;;;8.00;3.75;;;;;;;10.36;59.03;102233.06;5118637;28;20104;-64
2023/10/16 06:51:36;;;;;;;6.00;3.90;;;;;;;10.36;58.85;102228.50;5114868;28;20077;-65
2023/10/16 06:54:09;;;;;;;10.77;4.32;;;;;;;10.38;58.71;102234.53;5119474;28;20471;-64
2023/10/16 06:56:38;;;;;;;7.60;3.83;;;;;;;10.39;58.55;102235.38;5120884;28;20081;-64
2023/10/16 06:59:16;;;;;;;5.55;3.67;;;;;;;10.39;58.72;102236.19;5118111;28;20050;-64
2023/10/16 07:01:46;;;;;;;6.30;3.60;;;;;;;10.23;58.70;102214.06;5119684;28;20111;-60
2023/10/16 07:04:15;;;;;;;8.65;3.97;;;;;;;10.37;59.01;102243.63;5120261;28;20080;-60
2023/10/16 07:06:45;;;;;;;9.32;4.90;;;;;;;10.40;58.69;102250.47;5118696;28;20051;-60
2023/10/16 07:09:16;;;;;;;7.80;4.28;;;;;;;10.38;59.02;102250.66;5112143;28;20055;-60
2023/10/16 07:11:44;;;;;;;6.25;3.65;;;;;;;10.39;58.77;102254.19;5120370;28;20050;-61
2023/10/16 07:14:17;;;;;;;7.80;3.20;;;;;;;10.39;58.98;102252.31;5115944;28;20503;-60
2023/10/16 07:16:45;;;;;;;7.07;3.63;;;;;;;10.34;59.00;102244.00;5114541;28;20059;-60
2023/10/16 07:19:16;;;;;;;5.93;3.83;;;;;;;10.39;59.09;102251.50;5120084;28;20052;-60
2023/10/16 07:21:48;;;;;;;6.97;3.80;;;;;;;10.40;58.94;102255.84;5119405;28;20075;-60
2023/10/16 07:24:16;;;;;;;8.38;4.20;;;;;;;10.38;59.35;102252.50;5119025;28;20107;-60
2023/10/16 07:26:45;;;;;;;6.95;3.70;;;;;;;10.38;59.07;102258.72;5119839;28;20112;-60
2023/10/16 07:29:14;;;;;;;6.35;3.75;;;;;;;10.40;59.23;102256.66;5119967;28;20051;-60
2023/10/16 07:31:42;;;;;;;6.05;4.10;;;;;;;10.41;59.12;102249.41;5120166;28;20088;-61
2023/10/16 07:34:11;;;;;;;8.23;3.58;;;;;;;10.42;59.24;102251.94;5118719;28;20074;-60
2023/10/16 07:36:39;;;;;;;8.45;3.55;;;;;;;10.40;58.91;102248.59;5117044;28;20059;-60
2023/10/16 07:39:08;;;;;;;7.47;3.58;;;;;;;10.40;59.21;102247.78;5118808;28;20052;-61
2023/10/16 07:41:37;;;;;;;7.25;4.22;;;;;;;10.40;59.36;102240.53;5119467;28;20058;-60
2023/10/16 07:44:06;;;;;;;8.43;4.20;;;;;;;10.40;59.30;102240.53;5119277;28;20123;-61
2023/10/16 07:46:38;;;;;;;5.57;3.55;;;;;;;10.39;59.44;102240.75;5117355;28;20054;-62
2023/10/16 07:49:12;;;;;;;9.95;4.72;;;;;;;10.40;59.42;102229.78;5121061;28;20044;-62
2023/10/16 07:51:45;;;;;;;6.65;3.75;;;;;;;10.42;59.40;102240.34;5122743;28;20126;-64
2023/10/16 07:54:14;;;;;;;7.80;4.30;;;;;;;10.35;60.27;102242.13;5124023;28;20051;-63
2023/10/16 07:56:42;;;;;;;7.38;4.18;;;;;;;10.34;60.25;102240.47;5116261;28;20123;-61
2023/10/16 07:59:10;;;;;;;7.30;3.92;;;;;;;10.34;59.96;102229.72;5121076;28;20101;-61
2023/10/16 08:01:48;;;;;;;7.97;4.25;;;;;;;10.40;60.12;102242.41;5121107;28;20055;-61
2023/10/16 08:04:27;;;;;;;13.32;4.38;;;;;;;10.40;59.86;102248.59;5119180;28;20044;-60
2023/10/16 08:07:04;;;;;;;11.82;4.72;;;;;;;10.39;60.11;102249.63;5122838;28;20051;-60
2023/10/16 08:09:57;;;;;;;6.45;4.00;;;;;;;10.39;60.17;102244.25;5114816;28;20056;-60
2023/10/16 08:12:36;;;;;;;7.13;3.90;;;;;;;10.40;60.02;102251.28;5116115;28;20088;-61
2023/10/16 08:15:15;;;;;;;8.05;4.40;;;;;;;10.43;59.99;102242.84;5120060;28;20055;-61
2023/10/16 08:17:46;;;;;;;7.47;4.25;;;;;;;10.44;60.28;102249.06;5117722;28;20056;-60
2023/10/16 08:20:19;;;;;;;6.97;4.20;;;;;;;10.27;60.00;102226.09;5122166;28;20142;-61
2023/10/16 08:22:49;;;;;;;8.82;3.63;;;;;;;10.43;60.20;102245.53;5109529;28;20044;-62
2023/10/16 08:25:33;;;;;;;7.72;4.18;;;;;;;10.43;60.31;102245.53;5123870;28;20066;-62
2023/10/16 08:28:20;;;;;;;7.45;4.38;;;;;;;10.42;60.27;102249.22;5120926;28;20048;-62
2023/10/16 08:30:52;;;;;;;5.43;3.50;;;;;;;10.30;60.50;102223.88;5123280;28;20051;-62
2023/10/16 08:33:30;;;;;;;7.00;3.97;;;;;;;10.47;60.47;102247.84;5108340;28;20125;-61
2023/10/16 08:35:59;;;;;;;10.57;4.85;;;;;;;10.47;60.54;102248.69;5119271;28;20115;-62
2023/10/16 08:38:31;;;;;;;8.50;4.47;;;;;;;10.47;60.79;102245.16;5122751;28;20039;-62
2023/10/16 08:41:05;;;;;;;10.98;3.72;;;;;;;10.47;60.40;102250.53;5121137;28;20147;-62
2023/10/16 08:43:52;;;;;;;5.70;3.72;;;;;;;10.44;60.94;102252.56;5122589;28;20499;-61
2023/10/16 08:46:30;;;;;;;5.55;3.65;;;;;;;10.43;60.77;102248.22;5122364;28;20048;-61
2023/10/16 08:49:03;;;;;;;8.02;3.65;;;;;;;10.58;60.63;102256.25;5123094;28;20113;-62
2023/10/16 08:51:32;;;;;;;8.00;3.63;;;;;;;10.73;60.10;102240.94;5122337;28;20051;-62
2023/10/16 08:54:02;;;;;;;6.60;3.65;;;;;;;10.92;59.57;102252.13;5112859;28;20056;-62
2023/10/16 08:56:30;;;;;;;6.90;3.70;;;;;;;11.17;59.03;102247.22;5122154;28;20062;-62
2023/10/16 08:59:01;;;;;;;8.05;3.63;;;;;;;11.39;57.97;102248.88;5122309;28;20072;-61
2023/10/16 09:01:32;;;;;;;6.35;3.63;;;;;;;11.46;57.63;102230.09;5119337;28;20050;-64
2023/10/16 09:04:06;;;;;;;8.50;3.42;;;;;;;11.80;57.09;102253.63;5122719;28;20047;-64
2023/10/16 09:06:37;;;;;;;7.47;3.88;;;;;;;12.01;56.45;102256.25;5126546;28;20071;-64
2023/10/16 09:09:12;;;;;;;6.32;3.83;;;;;;;12.05;56.22;102247.59;5123221;28;20064;-64
2023/10/16 09:11:41;;;;;;;7.00;3.45;;;;;;;12.01;56.88;102250.88;5125370;28;20271;-64
2023/10/16 09:14:13;;;;;;;7.55;4.75;;;;;;;11.88;56.93;102246.22;5119936;28;20050;-64
2023/10/16 09:16:44;;;;;;;6.13;3.67;;;;;;;11.75;57.79;102251.47;5119634;28;20152;-64
2023/10/16 09:19:15;;;;;;;5.38;3.13;;;;;;;11.61;58.21;102253.22;5125865;28;20155;-64
2023/10/16 09:21:44;;;;;;;4.80;3.08;;;;;;;11.52;58.54;102238.25;5125380;28;20047;-64
2023/10/16 09:24:14;;;;;;;4.88;3.05;;;;;;;11.42;58.83;102243.13;5126198;28;20139;-64
2023/10/16 09:26:45;;;;;;;6.10;3.25;;;;;;;11.38;59.13;102248.06;5118340;28;20077;-64
2023/10/16 09:29:20;;;;;;;9.57;3.60;;;;;;;11.30;60.63;102248.19;5123371;28;20059;-63
2023/10/16 09:31:49;;;;;;;10.00;3.53;;;;;;;11.29;60.32;102240.31;5127071;28;20048;-65
2023/10/16 09:34:25;;;;;;;5.15;3.47;;;;;;;11.13;60.26;102230.63;5127307;28;20050;-66
2023/10/16 09:39:36;;;;;;;7.90;3.10;;;;;;;11.21;60.75;102248.50;5123335;28;20043;-67
2023/10/16 09:42:12;;;;;;;6.82;3.28;;;;;;;11.20;60.76;102253.06;5125345;28;20139;-64
2023/10/16 09:44:44;;;;;;;9.52;3.70;;;;;;;11.21;60.83;102245.81;5125497;28;20130;-66
2023/10/16 09:47:30;;;;;;;5.95;3.25;;;;;;;11.19;60.84;102258.63;5123748;28;20050;-65
2023/10/16 09:50:01;;;;;;;6.75;3.00;;;;;;;11.18;61.08;102251.56;5123912;28;20135;-65
2023/10/16 09:52:32;;;;;;;7.40;3.03;;;;;;;11.17;61.12;102253.44;5123746;28;20051;-64
2023/10/16 09:55:01;;;;;;;7.13;3.03;;;;;;;11.18;61.31;102248.88;5125370;28;20067;-64
2023/10/16 09:57:31;;;;;;;10.10;3.00;;;;;;;11.02;61.48;102217.69;5123587;28;20063;-64
2023/10/16 10:00:23;;;;;;;9.18;2.80;;;;;;;11.20;61.35;102249.53;5119153;28;20036;-65
2023/10/16 10:02:52;;;;;;;5.75;2.47;;;;;;;11.05;61.26;102218.13;5125703;28;20420;-66
2023/10/16 10:05:31;;;;;;;4.80;2.80;;;;;;;11.20;61.53;102236.91;5122878;28;20054;-66
2023/10/16 10:08:01;;;;;;;5.90;2.70;;;;;;;11.21;61.49;102246.66;5121173;28;20047;-65
2023/10/16 10:11:05;;;;;;;5.82;2.67;;;;;;;11.22;61.82;102244.78;5125511;28;20048;-65
2023/10/16 10:14:09;;;;;;;5.05;2.78;;;;;;;11.24;61.83;102238.19;5119727;28;20075;-66
2023/10/16 10:16:45;;;;;;;5.55;3.10;;;;;;;11.24;62.58;102238.19;4372553;28;10001038;-66
2023/10/16 10:19:24;;;;;;;6.28;2.78;;;;;;;11.29;62.43;102237.63;5074485;28;20056;-67
2023/10/16 10:21:58;;;;;;;7.55;2.85;;;;;;;11.17;62.33;102212.25;5072084;28;20092;-67
2023/10/16 10:24:26;;;;;;;5.63;2.95;;;;;;;11.33;61.99;102234.34;5075429;28;20079;-67
2023/10/16 10:26:55;;;;;;;10.80;2.67;;;;;;;11.37;62.13;102232.94;5068627;28;20053;-67
2023/10/16 10:29:25;;;;;;;6.00;2.92;;;;;;;11.41;62.01;102233.38;5067305;28;20071;-65
2023/10/16 10:31:56;;;;;;;5.43;2.60;;;;;;;11.45;62.16;102229.28;5076168;28;20082;-63
2023/10/16 10:34:27;;;;;;;9.38;2.67;;;;;;;11.46;61.96;102236.31;5073400;28;20045;-61
2023/10/16 10:36:59;;;;;;;8.20;2.70;;;;;;;11.47;62.06;102237.16;5069214;28;20114;-67
2023/10/16 10:39:43;;;;;;;6.18;2.78;;;;;;;11.49;62.08;102229.72;5071516;28;20056;-67
2023/10/16 10:42:23;;;;;;;4.35;2.30;;;;;;;11.51;62.26;102228.50;5079580;28;20111;-66
2023/10/16 10:45:17;;;;;;;3.65;2.15;;;;;;;11.53;62.05;102226.44;5080085;28;20045;-67
2023/10/16 10:47:45;;;;;;;5.78;2.42;;;;;;;11.55;62.37;102221.69;5090660;28;20113;-66
2023/10/16 10:50:14;;;;;;;4.80;2.45;;;;;;;11.59;62.26;102222.13;5117700;28;20044;-66
2023/10/16 10:52:46;;;;;;;7.50;2.50;;;;;;;11.60;62.17;102224.63;5107898;28;20134;-67
2023/10/16 10:55:21;;;;;;;7.25;2.63;;;;;;;11.63;62.14;102218.88;5111144;28;20484;-67
2023/10/16 10:57:58;;;;;;;5.22;2.35;;;;;;;11.53;62.24;102187.91;5106920;28;20086;-67
2023/10/16 11:00:49;;;;;;;3.88;2.55;;;;;;;11.70;62.18;102208.13;5111957;28;20051;-67
2023/10/16 11:03:30;;;;;;;5.03;2.30;;;;;;;11.71;62.33;102213.34;5113191;28;20123;-67
2023/10/16 11:05:58;;;;;;;7.18;2.95;;;;;;;11.77;61.86;102200.13;5113738;28;20044;-68
2023/10/16 11:08:34;;;;;;;5.25;2.92;;;;;;;11.80;62.06;102208.66;5119888;28;20048;-67
2023/10/16 11:11:04;;;;;;;3.65;2.00;;;;;;;11.84;61.99;102204.53;5113209;28;20070;-67
2023/10/16 11:13:32;;;;;;;6.00;2.03;;;;;;;11.87;61.74;102201.47;5123322;28;20120;-67
2023/10/16 11:16:00;;;;;;;6.75;2.17;;;;;;;11.89;61.56;102201.25;5123928;28;20048;-67
2023/10/16 11:18:30;;;;;;;3.40;2.05;;;;;;;11.90;61.62;102200.22;5124093;28;20139;-67
2023/10/16 11:21:04;;;;;;;8.63;2.17;;;;;;;11.92;61.49;102193.63;5122476;28;20078;-67
2023/10/16 11:23:38;;;;;;;2.97;1.83;;;;;;;11.95;61.56;102198.63;5119214;28;20048;-66
2023/10/16 11:26:12;;;;;;;6.90;2.20;;;;;;;11.98;61.51;102192.00;5119452;28;20043;-67
2023/10/16 11:28:48;;;;;;;3.13;1.70;;;;;;;12.07;61.37;102189.97;5117925;28;20055;-67
2023/10/16 11:31:19;;;;;;;5.03;1.88;;;;;;;12.06;61.29;102172.97;5115710;28;20040;-67
2023/10/16 11:34:01;;;;;;;4.45;2.03;;;;;;;11.96;61.06;102145.56;5124633;28;20108;-67
2023/10/16 11:36:31;;;;;;;5.40;1.73;;;;;;;12.23;60.61;102176.97;5116287;28;20184;-66
2023/10/16 11:39:10;;;;;;;3.92;1.75;;;;;;;12.27;60.52;102169.31;5116867;28;20174;-67
2023/10/16 11:41:38;;;;;;;2.67;1.60;;;;;;;12.30;60.66;102174.31;5114094;28;20044;-67
2023/10/16 11:44:47;;;;;;;5.38;1.90;;;;;;;12.32;60.77;102170.38;5123592;28;20047;-67
2023/10/16 11:47:18;;;;;;;4.90;1.65;;;;;;;12.35;60.13;102171.84;5112948;28;20047;-67
2023/10/16 11:49:53;;;;;;;4.55;1.67;;;;;;;12.35;60.39;102175.38;5120770;28;20052;-67
2023/10/16 11:52:23;;;;;;;5.03;2.25;;;;;;;12.35;60.43;102169.97;5121974;28;20044;-67
2023/10/16 11:54:56;;;;;;;4.60;1.65;;;;;;;12.34;60.09;102165.63;5118943;28;20138;-67
2023/10/16 11:57:25;;;;;;;3.38;1.40;;;;;;;12.36;60.50;102168.94;5120476;28;20393;-67
2023/10/16 11:59:53;;;;;;;4.93;1.70;;;;;;;12.36;60.24;102162.72;5121062;28;20107;-67
2023/10/16 12:02:27;;;;;;;3.53;1.52;;;;;;;12.37;60.36;102157.13;5124357;28;20100;-67
2023/10/16 12:05:05;;;;;;;4.47;1.40;;;;;;;12.39;60.50;102162.31;5119482;28;20043;-67
2023/10/16 12:07:33;;;;;;;4.28;1.73;;;;;;;12.39;60.46;102149.66;5111104;28;20188;-67
2023/10/16 12:10:05;;;;;;;4.72;1.63;;;;;;;12.39;60.05;102152.34;5111834;28;20109;-67
2023/10/16 12:12:33;;;;;;;3.47;1.55;;;;;;;12.41;60.40;102144.06;5123464;28;20071;-67
2023/10/16 12:15:02;;;;;;;4.90;1.45;;;;;;;12.42;60.36;102144.91;5118814;28;20128;-67
2023/10/16 12:17:30;;;;;;;2.13;1.30;;;;;;;12.43;60.19;102143.88;5117690;28;20040;-67
2023/10/16 12:19:58;;;;;;;3.58;1.30;;;;;;;12.43;60.17;102136.63;5119490;28;20119;-67
2023/10/16 12:22:26;;;;;;;2.00;0.98;;;;;;;12.43;60.33;102136.63;5123795;28;20052;-67
2023/10/16 12:24:56;;;;;;;2.95;1.20;;;;;;;12.44;60.23;102140.13;5118291;28;20055;-67
2023/10/16 12:27:27;;;;;;;4.28;1.83;;;;;;;12.44;60.38;102126.66;5123230;28;20497;-66
2023/10/16 12:29:55;;;;;;;2.55;1.05;;;;;;;12.44;60.18;102135.56;5118000;28;20051;-66
2023/10/16 12:32:24;;;;;;;1.80;0.80;;;;;;;12.46;60.27;102132.69;5119269;28;20479;-67
2023/10/16 12:34:54;;;;;;;2.83;1.27;;;;;;;12.47;60.35;102128.94;5122697;28;20071;-67
2023/10/16 12:37:22;;;;;;;3.33;1.20;;;;;;;12.49;60.34;102127.72;5114362;28;20075;-67
2023/10/16 12:39:52;;;;;;;2.67;1.30;;;;;;;12.49;60.62;102121.47;5122025;28;20109;-67
2023/10/16 12:42:21;;;;;;;4.78;1.52;;;;;;;12.49;60.44;102127.72;5108723;28;20048;-67
2023/10/16 12:44:51;;;;;;;1.50;1.20;;;;;;;12.53;60.89;102122.75;5119419;28;20059;-67
2023/10/16 12:47:19;;;;;;;2.15;1.00;;;;;;;12.54;60.76;102114.44;5121494;28;20134;-67
2023/10/16 12:50:08;;;;;;;2.55;1.15;;;;;;;12.56;60.69;102109.69;5112724;28;20074;-67
2023/10/16 12:52:36;;;;;;;3.55;0.80;;;;;;;12.58;60.79;102106.78;5117607;28;20073;-67
2023/10/16 12:55:09;;;;;;;4.35;1.00;;;;;;;12.58;60.65;102104.91;5117442;28;20052;-67
2023/10/16 12:57:37;;;;;;;1.67;0.90;;;;;;;12.61;60.70;102109.91;5123184;28;20107;-67
2023/10/16 13:00:15;;;;;;;3.95;1.42;;;;;;;12.63;61.17;102115.09;5119923;28;20047;-67
2023/10/16 13:02:45;;;;;;;2.38;1.23;;;;;;;12.61;60.81;102103.69;5116535;28;20044;-67
2023/10/16 13:05:14;;;;;;;4.07;1.23;;;;;;;12.64;61.01;102105.97;5122351;28;20047;-67
2023/10/16 13:07:42;;;;;;;4.57;1.20;;;;;;;12.61;60.89;102107.22;5122935;28;20054;-67
2023/10/16 13:10:15;;;;;;;2.42;1.23;;;;;;;12.65;60.85;102110.31;5122956;28;20071;-67
2023/10/16 13:12:44;;;;;;;2.33;1.13;;;;;;;12.53;61.10;102082.28;5113658;28;20063;-67
2023/10/16 13:15:16;;;;;;;1.15;0.82;;;;;;;12.66;61.37;102098.50;5119390;28;20055;-68